sensor_id;sensor_type;location;lat;lon;timestamp;P1;durP1;ratioP1;P2;durP2;ratioP2
66607;SDS011;53462;39.616;8.824;2023-04-03T00:02:09;7.20;;;1.15;;
66607;SDS011;53462;39.616;8.824;2023-04-03T00:04:35;2.42;;;0.90;;
66607;SDS011;53462;39.616;8.824;2023-04-03T00:07:01;4.97;;;1.00;;
66607;SDS011;53462;39.616;8.824;2023-04-03T00:09:27;5.22;;;1.10;;
66607;SDS011;53462;39.616;8.824;2023-04-03T00:11:53;5.45;;;1.00;;
66607;SDS011;53462;39.616;8.824;2023-04-03T00:14:18;4.03;;;1.20;;
66607;SDS011;53462;39.616;8.824;2023-04-03T00:16:45;3.95;;;1.33;;
66607;SDS011;53462;39.616;8.824;2023-04-03T00:19:10;4.40;;;0.93;;
66607;SDS011;53462;39.616;8.824;2023-04-03T00:21:37;5.50;;;1.00;;
66607;SDS011;53462;39.616;8.824;2023-04-03T00:24:04;7.65;;;1.20;;
66607;SDS011;53462;39.616;8.824;2023-04-03T00:26:30;8.23;;;1.33;;
66607;SDS011;53462;39.616;8.824;2023-04-03T00:28:56;4.03;;;1.00;;
66607;SDS011;53462;39.616;8.824;2023-04-03T00:31:22;3.60;;;1.27;;
66607;SDS011;53462;39.616;8.824;2023-04-03T00:33:48;11.55;;;1.50;;
66607;SDS011;53462;39.616;8.824;2023-04-03T00:36:15;4.38;;;1.10;;
66607;SDS011;53462;39.616;8.824;2023-04-03T00:38:41;6.00;;;1.00;;
66607;SDS011;53462;39.616;8.824;2023-04-03T00:41:07;4.28;;;1.10;;
66607;SDS011;53462;39.616;8.824;2023-04-03T00:43:33;7.35;;;1.45;;
66607;SDS011;53462;39.616;8.824;2023-04-03T00:45:59;6.57;;;1.13;;
66607;SDS011;53462;39.616;8.824;2023-04-03T00:48:28;6.90;;;1.52;;
66607;SDS011;53462;39.616;8.824;2023-04-03T00:50:57;5.68;;;1.25;;
66607;SDS011;53462;39.616;8.824;2023-04-03T00:53:25;6.88;;;1.25;;
66607;SDS011;53462;39.616;8.824;2023-04-03T00:56:05;4.88;;;1.45;;
66607;SDS011;53462;39.616;8.824;2023-04-03T00:58:38;6.75;;;1.80;;
66607;SDS011;53462;39.616;8.824;2023-04-03T01:01:09;3.70;;;1.52;;
66607;SDS011;53462;39.616;8.824;2023-04-03T01:03:40;6.00;;;1.63;;
66607;SDS011;53462;39.616;8.824;2023-04-03T01:06:06;7.28;;;1.10;;
66607;SDS011;53462;39.616;8.824;2023-04-03T01:08:32;5.22;;;1.08;;
66607;SDS011;53462;39.616;8.824;2023-04-03T01:10:59;7.15;;;1.33;;
66607;SDS011;53462;39.616;8.824;2023-04-03T01:13:28;5.80;;;1.10;;
66607;SDS011;53462;39.616;8.824;2023-04-03T01:15:56;4.07;;;1.30;;
66607;SDS011;53462;39.616;8.824;2023-04-03T01:18:25;4.35;;;1.30;;
66607;SDS011;53462;39.616;8.824;2023-04-03T01:21:05;4.82;;;0.82;;
66607;SDS011;53462;39.616;8.824;2023-04-03T01:23:54;8.10;;;1.70;;
66607;SDS011;53462;39.616;8.824;2023-04-03T01:26:26;6.75;;;1.23;;
66607;SDS011;53462;39.616;8.824;2023-04-03T01:28:54;4.85;;;1.33;;
66607;SDS011;53462;39.616;8.824;2023-04-03T01:31:28;5.50;;;1.17;;
66607;SDS011;53462;39.616;8.824;2023-04-03T01:33:57;6.50;;;1.25;;
66607;SDS011;53462;39.616;8.824;2023-04-03T01:36:26;6.18;;;1.00;;
66607;SDS011;53462;39.616;8.824;2023-04-03T01:38:54;5.25;;;1.13;;
66607;SDS011;53462;39.616;8.824;2023-04-03T01:41:22;5.07;;;1.35;;
66607;SDS011;53462;39.616;8.824;2023-04-03T01:43:50;5.07;;;1.13;;
66607;SDS011;53462;39.616;8.824;2023-04-03T01:46:17;3.40;;;1.05;;
66607;SDS011;53462;39.616;8.824;2023-04-03T01:48:43;4.25;;;1.10;;
66607;SDS011;53462;39.616;8.824;2023-04-03T01:51:09;4.63;;;0.93;;
66607;SDS011;53462;39.616;8.824;2023-04-03T01:53:35;3.85;;;1.13;;
66607;SDS011;53462;39.616;8.824;2023-04-03T01:56:01;5.78;;;1.10;;
66607;SDS011;53462;39.616;8.824;2023-04-03T01:58:29;3.15;;;1.10;;
66607;SDS011;53462;39.616;8.824;2023-04-03T02:00:55;3.58;;;0.90;;
66607;SDS011;53462;39.616;8.824;2023-04-03T02:03:22;4.07;;;1.15;;
66607;SDS011;53462;39.616;8.824;2023-04-03T02:05:49;7.82;;;1.20;;
66607;SDS011;53462;39.616;8.824;2023-04-03T02:08:15;7.35;;;1.40;;
66607;SDS011;53462;39.616;8.824;2023-04-03T02:10:43;3.88;;;1.10;;
66607;SDS011;53462;39.616;8.824;2023-04-03T02:13:10;7.55;;;1.10;;
66607;SDS011;53462;39.616;8.824;2023-04-03T02:15:39;5.50;;;1.20;;
66607;SDS011;53462;39.616;8.824;2023-04-03T02:18:06;4.28;;;1.15;;
66607;SDS011;53462;39.616;8.824;2023-04-03T02:20:32;5.50;;;1.33;;
66607;SDS011;53462;39.616;8.824;2023-04-03T02:22:59;5.78;;;1.30;;
66607;SDS011;53462;39.616;8.824;2023-04-03T02:25:25;4.20;;;1.13;;
66607;SDS011;53462;39.616;8.824;2023-04-03T02:27:51;7.07;;;1.88;;
66607;SDS011;53462;39.616;8.824;2023-04-03T02:30:17;7.47;;;1.25;;
66607;SDS011;53462;39.616;8.824;2023-04-03T02:32:43;7.82;;;1.20;;
66607;SDS011;53462;39.616;8.824;2023-04-03T02:35:10;5.78;;;1.33;;
66607;SDS011;53462;39.616;8.824;2023-04-03T02:37:38;7.78;;;1.20;;
66607;SDS011;53462;39.616;8.824;2023-04-03T02:40:05;4.40;;;1.15;;
66607;SDS011;53462;39.616;8.824;2023-04-03T02:42:31;9.13;;;1.48;;
66607;SDS011;53462;39.616;8.824;2023-04-03T02:44:57;4.40;;;1.27;;
66607;SDS011;53462;39.616;8.824;2023-04-03T02:47:26;4.75;;;1.13;;
66607;SDS011;53462;39.616;8.824;2023-04-03T02:49:53;5.82;;;1.10;;
66607;SDS011;53462;39.616;8.824;2023-04-03T02:52:19;5.78;;;1.35;;
66607;SDS011;53462;39.616;8.824;2023-04-03T02:54:46;8.38;;;1.38;;
66607;SDS011;53462;39.616;8.824;2023-04-03T02:57:12;4.38;;;1.17;;
66607;SDS011;53462;39.616;8.824;2023-04-03T02:59:38;5.63;;;1.10;;
66607;SDS011;53462;39.616;8.824;2023-04-03T03:02:07;7.60;;;1.25;;
66607;SDS011;53462;39.616;8.824;2023-04-03T03:04:33;4.55;;;1.27;;
66607;SDS011;53462;39.616;8.824;2023-04-03T03:07:00;7.35;;;1.17;;
66607;SDS011;53462;39.616;8.824;2023-04-03T03:09:27;5.18;;;1.08;;
66607;SDS011;53462;39.616;8.824;2023-04-03T03:11:55;6.90;;;1.30;;
66607;SDS011;53462;39.616;8.824;2023-04-03T03:14:22;6.38;;;1.30;;
66607;SDS011;53462;39.616;8.824;2023-04-03T03:16:48;5.13;;;1.60;;
66607;SDS011;53462;39.616;8.824;2023-04-03T03:19:14;8.40;;;1.50;;
66607;SDS011;53462;39.616;8.824;2023-04-03T03:21:41;7.63;;;1.60;;
66607;SDS011;53462;39.616;8.824;2023-04-03T03:24:07;5.93;;;1.33;;
66607;SDS011;53462;39.616;8.824;2023-04-03T03:26:32;7.05;;;1.20;;
66607;SDS011;53462;39.616;8.824;2023-04-03T03:29:01;4.95;;;1.40;;
66607;SDS011;53462;39.616;8.824;2023-04-03T03:31:28;4.40;;;1.23;;
66607;SDS011;53462;39.616;8.824;2023-04-03T03:33:53;5.53;;;1.20;;
66607;SDS011;53462;39.616;8.824;2023-04-03T03:36:21;5.50;;;1.13;;
66607;SDS011;53462;39.616;8.824;2023-04-03T03:38:47;4.38;;;1.00;;
66607;SDS011;53462;39.616;8.824;2023-04-03T03:41:13;6.22;;;1.60;;
66607;SDS011;53462;39.616;8.824;2023-04-03T03:43:40;3.25;;;1.10;;
66607;SDS011;53462;39.616;8.824;2023-04-03T03:46:07;7.72;;;1.38;;
66607;SDS011;53462;39.616;8.824;2023-04-03T03:48:33;6.60;;;1.45;;
66607;SDS011;53462;39.616;8.824;2023-04-03T03:51:00;7.63;;;1.50;;
66607;SDS011;53462;39.616;8.824;2023-04-03T03:53:29;5.32;;;1.20;;
66607;SDS011;53462;39.616;8.824;2023-04-03T03:55:59;5.43;;;1.38;;
66607;SDS011;53462;39.616;8.824;2023-04-03T03:58:28;6.07;;;1.15;;
66607;SDS011;53462;39.616;8.824;2023-04-03T04:00:54;6.15;;;1.33;;
66607;SDS011;53462;39.616;8.824;2023-04-03T04:03:20;6.90;;;1.10;;
66607;SDS011;53462;39.616;8.824;2023-04-03T04:05:47;5.53;;;1.33;;
66607;SDS011;53462;39.616;8.824;2023-04-03T04:08:14;7.20;;;1.23;;
66607;SDS011;53462;39.616;8.824;2023-04-03T04:10:41;8.02;;;1.38;;
66607;SDS011;53462;39.616;8.824;2023-04-03T04:13:07;7.47;;;1.30;;
66607;SDS011;53462;39.616;8.824;2023-04-03T04:15:33;6.65;;;1.23;;
66607;SDS011;53462;39.616;8.824;2023-04-03T04:17:59;7.00;;;1.25;;
66607;SDS011;53462;39.616;8.824;2023-04-03T04:20:26;5.82;;;1.20;;
66607;SDS011;53462;39.616;8.824;2023-04-03T04:22:52;13.70;;;1.77;;
66607;SDS011;53462;39.616;8.824;2023-04-03T04:25:19;4.10;;;1.20;;
66607;SDS011;53462;39.616;8.824;2023-04-03T04:27:45;4.55;;;1.20;;
66607;SDS011;53462;39.616;8.824;2023-04-03T04:30:13;5.93;;;1.40;;
66607;SDS011;53462;39.616;8.824;2023-04-03T04:32:41;6.95;;;1.20;;
66607;SDS011;53462;39.616;8.824;2023-04-03T04:35:07;4.63;;;1.60;;
66607;SDS011;53462;39.616;8.824;2023-04-03T04:37:38;4.63;;;1.40;;
66607;SDS011;53462;39.616;8.824;2023-04-03T04:40:04;7.32;;;1.52;;
66607;SDS011;53462;39.616;8.824;2023-04-03T04:42:30;7.70;;;1.50;;
66607;SDS011;53462;39.616;8.824;2023-04-03T04:44:56;11.77;;;1.83;;
66607;SDS011;53462;39.616;8.824;2023-04-03T04:47:23;7.32;;;1.52;;
66607;SDS011;53462;39.616;8.824;2023-04-03T04:49:49;13.57;;;2.38;;
66607;SDS011;53462;39.616;8.824;2023-04-03T04:52:16;10.43;;;1.92;;
66607;SDS011;53462;39.616;8.824;2023-04-03T04:54:42;10.43;;;1.70;;
66607;SDS011;53462;39.616;8.824;2023-04-03T04:57:08;6.28;;;1.30;;
66607;SDS011;53462;39.616;8.824;2023-04-03T04:59:36;8.07;;;1.70;;
66607;SDS011;53462;39.616;8.824;2023-04-03T05:02:02;7.93;;;1.70;;
66607;SDS011;53462;39.616;8.824;2023-04-03T05:04:29;6.25;;;1.83;;
66607;SDS011;53462;39.616;8.824;2023-04-03T05:07:02;4.65;;;1.30;;
66607;SDS011;53462;39.616;8.824;2023-04-03T05:09:30;6.05;;;1.20;;
66607;SDS011;53462;39.616;8.824;2023-04-03T05:11:56;7.35;;;1.48;;
66607;SDS011;53462;39.616;8.824;2023-04-03T05:14:25;6.68;;;1.35;;
66607;SDS011;53462;39.616;8.824;2023-04-03T05:16:52;4.18;;;1.38;;
66607;SDS011;53462;39.616;8.824;2023-04-03T05:19:20;8.00;;;1.50;;
66607;SDS011;53462;39.616;8.824;2023-04-03T05:21:47;8.10;;;1.25;;
66607;SDS011;53462;39.616;8.824;2023-04-03T05:24:15;6.68;;;1.70;;
66607;SDS011;53462;39.616;8.824;2023-04-03T05:26:42;5.97;;;1.75;;
66607;SDS011;53462;39.616;8.824;2023-04-03T05:29:10;4.43;;;1.50;;
66607;SDS011;53462;39.616;8.824;2023-04-03T05:31:36;4.35;;;1.27;;
66607;SDS011;53462;39.616;8.824;2023-04-03T05:34:02;5.22;;;1.50;;
66607;SDS011;53462;39.616;8.824;2023-04-03T05:36:31;6.78;;;1.52;;
66607;SDS011;53462;39.616;8.824;2023-04-03T05:39:02;6.90;;;2.10;;
66607;SDS011;53462;39.616;8.824;2023-04-03T05:41:28;8.90;;;2.70;;
66607;SDS011;53462;39.616;8.824;2023-04-03T05:43:54;7.47;;;2.78;;
66607;SDS011;53462;39.616;8.824;2023-04-03T05:46:22;7.47;;;2.72;;
66607;SDS011;53462;39.616;8.824;2023-04-03T05:48:52;5.18;;;1.20;;
66607;SDS011;53462;39.616;8.824;2023-04-03T05:51:25;6.05;;;1.55;;
66607;SDS011;53462;39.616;8.824;2023-04-03T05:54:41;3.00;;;1.25;;
66607;SDS011;53462;39.616;8.824;2023-04-03T05:56:58;8.57;;;2.05;;
66607;SDS011;53462;39.616;8.824;2023-04-03T05:59:25;9.48;;;2.33;;
66607;SDS011;53462;39.616;8.824;2023-04-03T06:01:54;9.95;;;1.85;;
66607;SDS011;53462;39.616;8.824;2023-04-03T06:04:20;6.80;;;1.65;;
66607;SDS011;53462;39.616;8.824;2023-04-03T06:06:48;7.15;;;1.95;;
66607;SDS011;53462;39.616;8.824;2023-04-03T06:09:16;7.25;;;1.50;;
66607;SDS011;53462;39.616;8.824;2023-04-03T06:11:43;9.90;;;2.25;;
66607;SDS011;53462;39.616;8.824;2023-04-03T06:14:10;8.05;;;2.22;;
66607;SDS011;53462;39.616;8.824;2023-04-03T06:16:36;9.27;;;2.00;;
66607;SDS011;53462;39.616;8.824;2023-04-03T06:19:06;9.60;;;3.38;;
66607;SDS011;53462;39.616;8.824;2023-04-03T06:21:37;7.97;;;2.80;;
66607;SDS011;53462;39.616;8.824;2023-04-03T06:24:03;7.25;;;2.10;;
66607;SDS011;53462;39.616;8.824;2023-04-03T06:26:31;6.05;;;2.03;;
66607;SDS011;53462;39.616;8.824;2023-04-03T06:28:58;6.95;;;1.63;;
66607;SDS011;53462;39.616;8.824;2023-04-03T06:31:24;4.35;;;1.25;;
66607;SDS011;53462;39.616;8.824;2023-04-03T06:33:51;5.78;;;1.30;;
66607;SDS011;53462;39.616;8.824;2023-04-03T06:36:18;3.03;;;1.20;;
66607;SDS011;53462;39.616;8.824;2023-04-03T06:38:45;7.78;;;1.35;;
66607;SDS011;53462;39.616;8.824;2023-04-03T06:41:12;6.50;;;1.30;;
66607;SDS011;53462;39.616;8.824;2023-04-03T06:43:37;7.35;;;1.55;;
66607;SDS011;53462;39.616;8.824;2023-04-03T06:46:03;7.80;;;1.98;;
66607;SDS011;53462;39.616;8.824;2023-04-03T06:48:33;4.10;;;1.20;;
66607;SDS011;53462;39.616;8.824;2023-04-03T06:50:59;17.55;;;6.80;;
66607;SDS011;53462;39.616;8.824;2023-04-03T06:53:25;40.15;;;18.92;;
66607;SDS011;53462;39.616;8.824;2023-04-03T06:55:51;14.60;;;6.63;;
66607;SDS011;53462;39.616;8.824;2023-04-03T06:58:17;15.10;;;7.82;;
66607;SDS011;53462;39.616;8.824;2023-04-03T07:00:43;14.10;;;5.95;;
66607;SDS011;53462;39.616;8.824;2023-04-03T07:03:09;13.52;;;5.15;;
66607;SDS011;53462;39.616;8.824;2023-04-03T07:05:35;14.05;;;4.25;;
66607;SDS011;53462;39.616;8.824;2023-04-03T07:08:01;9.60;;;3.72;;
66607;SDS011;53462;39.616;8.824;2023-04-03T07:10:27;16.60;;;9.45;;
66607;SDS011;53462;39.616;8.824;2023-04-03T07:12:53;22.90;;;9.20;;
66607;SDS011;53462;39.616;8.824;2023-04-03T07:15:19;21.30;;;8.63;;
66607;SDS011;53462;39.616;8.824;2023-04-03T07:17:45;20.52;;;7.93;;
66607;SDS011;53462;39.616;8.824;2023-04-03T07:20:11;16.13;;;5.68;;
66607;SDS011;53462;39.616;8.824;2023-04-03T07:22:37;11.55;;;3.70;;
66607;SDS011;53462;39.616;8.824;2023-04-03T07:25:03;9.98;;;3.28;;
66607;SDS011;53462;39.616;8.824;2023-04-03T07:27:32;19.50;;;7.20;;
66607;SDS011;53462;39.616;8.824;2023-04-03T07:29:58;12.00;;;3.80;;
66607;SDS011;53462;39.616;8.824;2023-04-03T07:32:24;14.50;;;4.97;;
66607;SDS011;53462;39.616;8.824;2023-04-03T07:34:50;9.10;;;3.33;;
66607;SDS011;53462;39.616;8.824;2023-04-03T07:37:16;8.65;;;2.22;;
66607;SDS011;53462;39.616;8.824;2023-04-03T07:39:43;10.23;;;2.38;;
66607;SDS011;53462;39.616;8.824;2023-04-03T07:42:10;7.15;;;2.55;;
66607;SDS011;53462;39.616;8.824;2023-04-03T07:44:37;9.45;;;2.65;;
66607;SDS011;53462;39.616;8.824;2023-04-03T07:47:03;6.70;;;1.85;;
66607;SDS011;53462;39.616;8.824;2023-04-03T07:49:29;6.60;;;2.13;;
66607;SDS011;53462;39.616;8.824;2023-04-03T07:51:55;11.27;;;1.90;;
66607;SDS011;53462;39.616;8.824;2023-04-03T07:54:21;11.18;;;2.47;;
66607;SDS011;53462;39.616;8.824;2023-04-03T07:56:47;11.15;;;2.45;;
66607;SDS011;53462;39.616;8.824;2023-04-03T07:59:13;9.65;;;3.15;;
66607;SDS011;53462;39.616;8.824;2023-04-03T08:01:39;9.65;;;3.15;;
66607;SDS011;53462;39.616;8.824;2023-04-03T08:04:05;7.80;;;1.85;;
66607;SDS011;53462;39.616;8.824;2023-04-03T08:06:32;7.13;;;2.30;;
66607;SDS011;53462;39.616;8.824;2023-04-03T08:09:01;9.30;;;1.88;;
66607;SDS011;53462;39.616;8.824;2023-04-03T08:11:29;6.38;;;1.70;;
66607;SDS011;53462;39.616;8.824;2023-04-03T08:13:56;8.27;;;2.28;;
66607;SDS011;53462;39.616;8.824;2023-04-03T08:16:22;6.97;;;2.33;;
66607;SDS011;53462;39.616;8.824;2023-04-03T08:18:52;9.68;;;3.20;;
66607;SDS011;53462;39.616;8.824;2023-04-03T08:21:19;5.70;;;1.90;;
66607;SDS011;53462;39.616;8.824;2023-04-03T08:23:47;8.15;;;2.40;;
66607;SDS011;53462;39.616;8.824;2023-04-03T08:26:16;7.45;;;2.45;;
66607;SDS011;53462;39.616;8.824;2023-04-03T08:28:44;7.63;;;2.65;;
66607;SDS011;53462;39.616;8.824;2023-04-03T08:31:11;7.82;;;2.92;;
66607;SDS011;53462;39.616;8.824;2023-04-03T08:33:42;8.40;;;2.83;;
66607;SDS011;53462;39.616;8.824;2023-04-03T08:36:16;6.00;;;2.10;;
66607;SDS011;53462;39.616;8.824;2023-04-03T08:38:44;9.75;;;2.15;;
66607;SDS011;53462;39.616;8.824;2023-04-03T08:41:19;11.23;;;3.60;;
66607;SDS011;53462;39.616;8.824;2023-04-03T08:44:17;8.15;;;2.38;;
66607;SDS011;53462;39.616;8.824;2023-04-03T08:49:44;6.30;;;2.30;;
66607;SDS011;53462;39.616;8.824;2023-04-03T08:52:36;7.00;;;2.00;;
66607;SDS011;53462;39.616;8.824;2023-04-03T08:55:21;7.45;;;2.08;;
66607;SDS011;53462;39.616;8.824;2023-04-03T08:57:48;4.22;;;1.50;;
66607;SDS011;53462;39.616;8.824;2023-04-03T09:00:23;5.72;;;1.73;;
66607;SDS011;53462;39.616;8.824;2023-04-03T09:02:51;4.53;;;1.60;;
66607;SDS011;53462;39.616;8.824;2023-04-03T09:05:41;6.70;;;1.95;;
66607;SDS011;53462;39.616;8.824;2023-04-03T09:10:46;4.65;;;1.45;;
66607;SDS011;53462;39.616;8.824;2023-04-03T09:13:26;4.03;;;1.23;;
66607;SDS011;53462;39.616;8.824;2023-04-03T09:16:57;7.03;;;1.35;;
66607;SDS011;53462;39.616;8.824;2023-04-03T09:19:22;4.35;;;1.33;;
66607;SDS011;53462;39.616;8.824;2023-04-03T09:22:37;6.60;;;1.77;;
66607;SDS011;53462;39.616;8.824;2023-04-03T09:27:29;5.80;;;1.30;;
66607;SDS011;53462;39.616;8.824;2023-04-03T09:29:55;4.25;;;1.33;;
66607;SDS011;53462;39.616;8.824;2023-04-03T09:34:59;5.85;;;1.40;;
66607;SDS011;53462;39.616;8.824;2023-04-03T09:37:41;6.05;;;1.42;;
66607;SDS011;53462;39.616;8.824;2023-04-03T09:45:46;5.05;;;1.55;;
66607;SDS011;53462;39.616;8.824;2023-04-03T09:50:58;4.07;;;1.60;;
66607;SDS011;53462;39.616;8.824;2023-04-03T09:58:42;5.82;;;2.70;;
66607;SDS011;53462;39.616;8.824;2023-04-03T10:01:22;5.78;;;1.77;;
66607;SDS011;53462;39.616;8.824;2023-04-03T10:04:15;5.95;;;2.30;;
66607;SDS011;53462;39.616;8.824;2023-04-03T10:06:40;4.93;;;1.60;;
66607;SDS011;53462;39.616;8.824;2023-04-03T10:09:22;6.47;;;1.53;;
66607;SDS011;53462;39.616;8.824;2023-04-03T10:11:57;3.90;;;1.40;;
66607;SDS011;53462;39.616;8.824;2023-04-03T10:14:24;4.22;;;1.20;;
66607;SDS011;53462;39.616;8.824;2023-04-03T10:16:57;2.80;;;1.30;;
66607;SDS011;53462;39.616;8.824;2023-04-03T10:19:46;4.60;;;1.30;;
66607;SDS011;53462;39.616;8.824;2023-04-03T10:42:13;1.88;;;1.00;;
66607;SDS011;53462;39.616;8.824;2023-04-03T10:51:19;3.80;;;1.30;;
66607;SDS011;53462;39.616;8.824;2023-04-03T10:56:38;2.97;;;1.27;;
66607;SDS011;53462;39.616;8.824;2023-04-03T10:59:46;4.55;;;1.40;;
66607;SDS011;53462;39.616;8.824;2023-04-03T11:02:24;4.35;;;1.00;;
66607;SDS011;53462;39.616;8.824;2023-04-03T11:05:40;1.92;;;0.95;;
66607;SDS011;53462;39.616;8.824;2023-04-03T11:07:55;4.25;;;1.80;;
66607;SDS011;53462;39.616;8.824;2023-04-03T11:10:44;3.83;;;1.30;;
66607;SDS011;53462;39.616;8.824;2023-04-03T11:15:57;4.25;;;1.40;;
66607;SDS011;53462;39.616;8.824;2023-04-03T11:18:26;6.13;;;1.40;;
66607;SDS011;53462;39.616;8.824;2023-04-03T11:21:35;4.40;;;1.30;;
66607;SDS011;53462;39.616;8.824;2023-04-03T11:24:04;6.77;;;1.80;;
66607;SDS011;53462;39.616;8.824;2023-04-03T11:26:38;4.78;;;1.27;;
66607;SDS011;53462;39.616;8.824;2023-04-03T11:29:07;4.22;;;1.25;;
66607;SDS011;53462;39.616;8.824;2023-04-03T11:36:59;5.15;;;1.50;;
66607;SDS011;53462;39.616;8.824;2023-04-03T11:39:28;8.73;;;2.30;;
66607;SDS011;53462;39.616;8.824;2023-04-03T11:42:13;7.20;;;1.95;;
66607;SDS011;53462;39.616;8.824;2023-04-03T11:44:51;7.68;;;1.63;;
66607;SDS011;53462;39.616;8.824;2023-04-03T11:47:51;4.13;;;1.45;;
66607;SDS011;53462;39.616;8.824;2023-04-03T11:50:37;7.40;;;1.55;;
66607;SDS011;53462;39.616;8.824;2023-04-03T12:13:40;5.82;;;1.25;;
66607;SDS011;53462;39.616;8.824;2023-04-03T12:16:26;6.70;;;1.50;;
66607;SDS011;53462;39.616;8.824;2023-04-03T12:30:20;3.95;;;1.35;;
66607;SDS011;53462;39.616;8.824;2023-04-03T12:41:37;7.13;;;1.42;;
66607;SDS011;53462;39.616;8.824;2023-04-03T12:46:50;7.40;;;1.30;;
66607;SDS011;53462;39.616;8.824;2023-04-03T12:49:22;3.00;;;1.35;;
66607;SDS011;53462;39.616;8.824;2023-04-03T12:51:59;4.22;;;1.00;;
66607;SDS011;53462;39.616;8.824;2023-04-03T12:54:35;3.20;;;1.00;;
66607;SDS011;53462;39.616;8.824;2023-04-03T13:02:10;3.72;;;1.23;;
66607;SDS011;53462;39.616;8.824;2023-04-03T13:04:47;4.40;;;1.20;;
66607;SDS011;53462;39.616;8.824;2023-04-03T13:07:25;4.88;;;1.10;;
66607;SDS011;53462;39.616;8.824;2023-04-03T13:10:09;4.57;;;1.23;;
66607;SDS011;53462;39.616;8.824;2023-04-03T13:12:48;8.27;;;1.50;;
66607;SDS011;53462;39.616;8.824;2023-04-03T13:15:40;5.07;;;1.40;;
66607;SDS011;53462;39.616;8.824;2023-04-03T13:18:21;4.43;;;1.30;;
66607;SDS011;53462;39.616;8.824;2023-04-03T13:20:48;6.63;;;1.50;;
66607;SDS011;53462;39.616;8.824;2023-04-03T13:36:31;9.27;;;1.98;;
66607;SDS011;53462;39.616;8.824;2023-04-03T13:41:36;5.63;;;1.35;;
66607;SDS011;53462;39.616;8.824;2023-04-03T13:54:53;3.45;;;1.58;;
66607;SDS011;53462;39.616;8.824;2023-04-03T13:57:22;3.85;;;1.55;;
66607;SDS011;53462;39.616;8.824;2023-04-03T13:59:48;4.03;;;1.30;;
66607;SDS011;53462;39.616;8.824;2023-04-03T14:02:17;13.75;;;1.67;;
66607;SDS011;53462;39.616;8.824;2023-04-03T14:04:58;5.47;;;1.38;;
66607;SDS011;53462;39.616;8.824;2023-04-03T14:07:27;5.00;;;1.40;;
66607;SDS011;53462;39.616;8.824;2023-04-03T14:09:54;5.40;;;1.33;;
66607;SDS011;53462;39.616;8.824;2023-04-03T14:12:24;3.60;;;1.30;;
66607;SDS011;53462;39.616;8.824;2023-04-03T14:15:02;5.40;;;1.50;;
66607;SDS011;53462;39.616;8.824;2023-04-03T14:17:30;5.38;;;1.40;;
66607;SDS011;53462;39.616;8.824;2023-04-03T14:19:57;6.00;;;1.45;;
66607;SDS011;53462;39.616;8.824;2023-04-03T14:22:26;9.38;;;1.90;;
66607;SDS011;53462;39.616;8.824;2023-04-03T14:24:54;18.05;;;2.45;;
66607;SDS011;53462;39.616;8.824;2023-04-03T14:27:22;8.45;;;1.50;;
66607;SDS011;53462;39.616;8.824;2023-04-03T14:29:51;20.42;;;1.90;;
66607;SDS011;53462;39.616;8.824;2023-04-03T14:32:18;8.57;;;1.35;;
66607;SDS011;53462;39.616;8.824;2023-04-03T14:34:45;8.35;;;1.63;;
66607;SDS011;53462;39.616;8.824;2023-04-03T14:37:12;5.50;;;1.45;;
66607;SDS011;53462;39.616;8.824;2023-04-03T14:39:41;5.65;;;1.45;;
66607;SDS011;53462;39.616;8.824;2023-04-03T14:42:17;8.20;;;1.15;;
66607;SDS011;53462;39.616;8.824;2023-04-03T14:44:48;5.65;;;1.20;;
66607;SDS011;53462;39.616;8.824;2023-04-03T14:47:16;6.00;;;1.65;;
66607;SDS011;53462;39.616;8.824;2023-04-03T14:49:46;6.05;;;1.15;;
66607;SDS011;53462;39.616;8.824;2023-04-03T14:52:24;6.68;;;3.13;;
66607;SDS011;53462;39.616;8.824;2023-04-03T14:54:54;14.07;;;4.55;;
66607;SDS011;53462;39.616;8.824;2023-04-03T14:57:21;7.35;;;2.75;;
66607;SDS011;53462;39.616;8.824;2023-04-03T14:59:50;4.40;;;1.70;;
66607;SDS011;53462;39.616;8.824;2023-04-03T15:04:57;6.53;;;1.50;;
66607;SDS011;53462;39.616;8.824;2023-04-03T15:07:25;5.25;;;1.40;;
66607;SDS011;53462;39.616;8.824;2023-04-03T15:09:54;2.40;;;1.42;;
66607;SDS011;53462;39.616;8.824;2023-04-03T15:12:22;6.82;;;1.30;;
66607;SDS011;53462;39.616;8.824;2023-04-03T15:14:48;6.00;;;1.60;;
66607;SDS011;53462;39.616;8.824;2023-04-03T15:17:15;5.82;;;1.95;;
66607;SDS011;53462;39.616;8.824;2023-04-03T15:19:45;7.00;;;1.48;;
66607;SDS011;53462;39.616;8.824;2023-04-03T15:22:18;5.85;;;1.90;;
66607;SDS011;53462;39.616;8.824;2023-04-03T15:24:45;6.18;;;1.67;;
66607;SDS011;53462;39.616;8.824;2023-04-03T15:27:11;5.32;;;1.70;;
66607;SDS011;53462;39.616;8.824;2023-04-03T15:29:40;8.50;;;2.22;;
66607;SDS011;53462;39.616;8.824;2023-04-03T15:32:07;6.80;;;1.42;;
66607;SDS011;53462;39.616;8.824;2023-04-03T15:34:34;7.60;;;1.50;;
66607;SDS011;53462;39.616;8.824;2023-04-03T15:37:00;7.38;;;1.77;;
66607;SDS011;53462;39.616;8.824;2023-04-03T15:39:30;6.90;;;1.85;;
66607;SDS011;53462;39.616;8.824;2023-04-03T15:41:56;8.60;;;2.30;;
66607;SDS011;53462;39.616;8.824;2023-04-03T15:44:31;7.15;;;1.75;;
66607;SDS011;53462;39.616;8.824;2023-04-03T15:46:58;7.90;;;1.73;;
66607;SDS011;53462;39.616;8.824;2023-04-03T15:49:25;7.20;;;1.40;;
66607;SDS011;53462;39.616;8.824;2023-04-03T15:51:52;5.88;;;1.92;;
66607;SDS011;53462;39.616;8.824;2023-04-03T15:54:18;8.52;;;2.30;;
66607;SDS011;53462;39.616;8.824;2023-04-03T15:56:44;7.63;;;1.80;;
66607;SDS011;53462;39.616;8.824;2023-04-03T15:59:10;8.30;;;1.80;;
66607;SDS011;53462;39.616;8.824;2023-04-03T16:01:36;5.43;;;1.80;;
66607;SDS011;53462;39.616;8.824;2023-04-03T16:04:04;5.45;;;1.60;;
66607;SDS011;53462;39.616;8.824;2023-04-03T16:06:32;5.80;;;1.40;;
66607;SDS011;53462;39.616;8.824;2023-04-03T16:08:59;6.38;;;1.52;;
66607;SDS011;53462;39.616;8.824;2023-04-03T16:11:25;16.48;;;2.35;;
66607;SDS011;53462;39.616;8.824;2023-04-03T16:13:52;2.13;;;1.20;;
66607;SDS011;53462;39.616;8.824;2023-04-03T16:16:19;8.20;;;2.70;;
66607;SDS011;53462;39.616;8.824;2023-04-03T16:18:45;7.03;;;2.63;;
66607;SDS011;53462;39.616;8.824;2023-04-03T16:21:12;4.60;;;1.98;;
66607;SDS011;53462;39.616;8.824;2023-04-03T16:23:40;1.88;;;1.10;;
66607;SDS011;53462;39.616;8.824;2023-04-03T16:26:06;19.83;;;2.53;;
66607;SDS011;53462;39.616;8.824;2023-04-03T16:28:32;8.60;;;1.40;;
66607;SDS011;53462;39.616;8.824;2023-04-03T16:30:59;3.85;;;1.20;;
66607;SDS011;53462;39.616;8.824;2023-04-03T16:33:26;3.38;;;1.20;;
66607;SDS011;53462;39.616;8.824;2023-04-03T16:35:52;2.13;;;1.00;;
66607;SDS011;53462;39.616;8.824;2023-04-03T16:38:18;3.60;;;1.27;;
66607;SDS011;53462;39.616;8.824;2023-04-03T16:40:47;3.28;;;1.08;;
66607;SDS011;53462;39.616;8.824;2023-04-03T16:43:14;8.38;;;1.27;;
66607;SDS011;53462;39.616;8.824;2023-04-03T16:45:40;5.53;;;1.35;;
66607;SDS011;53462;39.616;8.824;2023-04-03T16:48:07;4.30;;;1.20;;
66607;SDS011;53462;39.616;8.824;2023-04-03T16:50:33;3.60;;;1.10;;
66607;SDS011;53462;39.616;8.824;2023-04-03T16:52:59;5.80;;;2.05;;
66607;SDS011;53462;39.616;8.824;2023-04-03T16:55:28;6.60;;;1.55;;
66607;SDS011;53462;39.616;8.824;2023-04-03T16:57:54;7.97;;;1.65;;
66607;SDS011;53462;39.616;8.824;2023-04-03T17:00:20;6.03;;;1.10;;
66607;SDS011;53462;39.616;8.824;2023-04-03T17:02:46;2.92;;;1.02;;
66607;SDS011;53462;39.616;8.824;2023-04-03T17:05:12;6.25;;;1.35;;
66607;SDS011;53462;39.616;8.824;2023-04-03T17:07:38;8.20;;;1.50;;
66607;SDS011;53462;39.616;8.824;2023-04-03T17:10:04;8.35;;;1.60;;
66607;SDS011;53462;39.616;8.824;2023-04-03T17:12:31;7.63;;;2.60;;
66607;SDS011;53462;39.616;8.824;2023-04-03T17:14:57;5.60;;;1.45;;
66607;SDS011;53462;39.616;8.824;2023-04-03T17:17:23;4.88;;;1.63;;
66607;SDS011;53462;39.616;8.824;2023-04-03T17:19:51;7.13;;;1.50;;